Time;durP1;ratioP1;P1;durP2;ratioP2;P2;SDS_P1;SDS_P2;PMS_P1;PMS_P2;Temp;Humidity;BMP_temperature;BMP_pressure;BME280_temperature;BME280_humidity;BME280_pressure;Samples;Min_cycle;Max_cycle;Signal;HPM_P1;HPM_P2
2023/08/02 00:01:37;;;;;;;0.80;0.80;;;23.70;50.00;;;;;;5127965;27;45376;-68
2023/08/02 00:04:04;;;;;;;0.90;0.90;;;23.70;50.10;;;;;;5127842;27;45284;-68
2023/08/02 00:06:31;;;;;;;1.50;1.10;;;23.70;50.10;;;;;;5127769;27;45355;-68
2023/08/02 00:08:58;;;;;;;0.80;0.80;;;23.70;50.00;;;;;;5126955;27;46377;-68
2023/08/02 00:11:24;;;;;;;0.75;0.75;;;23.60;50.00;;;;;;5127460;27;45329;-68
2023/08/02 00:13:53;;;;;;;1.35;1.23;;;23.60;50.10;;;;;;5127439;27;45510;-68
2023/08/02 00:16:19;;;;;;;0.60;0.60;;;23.60;50.10;;;;;;5127610;27;45399;-68
2023/08/02 00:18:46;;;;;;;0.80;0.80;;;23.60;50.10;;;;;;5127222;27;46269;-68
2023/08/02 00:21:13;;;;;;;0.80;0.80;;;23.60;50.10;;;;;;5127332;27;45376;-68
2023/08/02 00:23:40;;;;;;;0.77;0.77;;;23.60;50.10;;;;;;5130853;27;44686;-68
2023/08/02 00:26:07;;;;;;;1.15;0.70;;;23.60;50.10;;;;;;5131143;27;45373;-69
2023/08/02 00:28:33;;;;;;;0.70;0.70;;;23.60;50.10;;;;;;5130021;27;46955;-68
2023/08/02 00:31:02;;;;;;;1.20;0.88;;;23.60;50.10;;;;;;5131000;27;45319;-68
2023/08/02 00:33:29;;;;;;;0.90;0.90;;;23.50;50.00;;;;;;5130830;27;44770;-68
2023/08/02 00:35:56;;;;;;;0.90;0.90;;;23.50;50.10;;;;;;5131077;27;45370;-69
2023/08/02 00:38:23;;;;;;;0.68;0.68;;;23.50;50.10;;;;;;5130755;27;45664;-68
2023/08/02 00:40:50;;;;;;;0.93;0.80;;;23.50;50.10;;;;;;5130727;27;45425;-68
2023/08/02 00:43:17;;;;;;;0.80;0.80;;;23.50;50.10;;;;;;5130877;27;45252;-68
2023/08/02 00:45:43;;;;;;;0.90;0.85;;;23.50;50.10;;;;;;5110155;27;45506;-68
2023/08/02 00:48:12;;;;;;;0.90;0.80;;;23.50;50.20;;;;;;5109946;27;47270;-68
2023/08/02 00:50:38;;;;;;;1.27;0.77;;;23.50;50.10;;;;;;5109957;27;45244;-68
2023/08/02 00:53:05;;;;;;;0.85;0.85;;;23.50;50.10;;;;;;5109546;27;45335;-69
2023/08/02 00:55:33;;;;;;;0.95;0.80;;;23.50;50.10;;;;;;5110041;27;45318;-68
2023/08/02 00:58:00;;;;;;;1.17;0.90;;;23.50;50.20;;;;;;5109687;27;45367;-68
2023/08/02 01:00:27;;;;;;;0.90;0.90;;;23.40;50.00;;;;;;5109686;27;45596;-69
2023/08/02 01:02:54;;;;;;;0.65;0.65;;;23.40;50.10;;;;;;5109820;27;45330;-69
2023/08/02 01:05:27;;;;;;;2.03;0.80;;;23.40;50.10;;;;;;5110017;27;45177;-68
2023/08/02 01:07:58;;;;;;;0.70;0.70;;;23.40;50.20;;;;;;5109505;27;45275;-68
2023/08/02 01:10:28;;;;;;;0.70;0.70;;;23.40;50.10;;;;;;5109708;27;45405;-68
2023/08/02 01:12:55;;;;;;;0.93;0.85;;;23.40;50.20;;;;;;5109411;27;45334;-68
2023/08/02 01:15:22;;;;;;;0.80;0.80;;;23.40;50.20;;;;;;5109169;27;45213;-66
2023/08/02 01:17:50;;;;;;;0.77;0.77;;;23.40;50.20;;;;;;5109531;27;45483;-68
2023/08/02 01:20:18;;;;;;;0.70;0.70;;;23.40;50.20;;;;;;5109863;27;45355;-69
2023/08/02 01:22:45;;;;;;;0.80;0.80;;;23.40;50.20;;;;;;5109645;27;45196;-68
2023/08/02 01:25:12;;;;;;;1.00;0.90;;;23.30;50.10;;;;;;5109614;27;45474;-68
2023/08/02 01:27:42;;;;;;;0.90;0.90;;;23.30;50.10;;;;;;5109207;27;45227;-70
2023/08/02 01:30:11;;;;;;;0.60;0.60;;;23.30;50.10;;;;;;5109267;27;45426;-68
2023/08/02 01:32:38;;;;;;;1.08;0.90;;;23.30;50.20;;;;;;5109525;27;45252;-69
2023/08/02 01:35:06;;;;;;;0.80;0.80;;;23.30;50.20;;;;;;5109017;27;45337;-68
2023/08/02 01:37:35;;;;;;;0.70;0.70;;;23.30;50.30;;;;;;5109206;27;45552;-68
2023/08/02 01:40:02;;;;;;;1.13;0.88;;;23.30;50.30;;;;;;5109232;27;45181;-68
2023/08/02 01:42:29;;;;;;;0.70;0.70;;;23.30;50.30;;;;;;5109131;27;45308;-68
2023/08/02 01:44:56;;;;;;;0.90;0.90;;;23.30;50.30;;;;;;5122817;27;45307;-68
2023/08/02 01:47:22;;;;;;;1.00;0.98;;;23.30;50.80;;;;;;5129621;27;47321;-67
2023/08/02 01:49:49;;;;;;;1.08;1.00;;;23.30;50.20;;;;;;5129602;27;45252;-68
2023/08/02 01:52:16;;;;;;;0.70;0.70;;;23.30;50.20;;;;;;5129867;27;45347;-68
2023/08/02 01:54:44;;;;;;;0.75;0.75;;;23.30;50.20;;;;;;5129435;27;45437;-69
2023/08/02 01:57:11;;;;;;;0.63;0.63;;;23.30;50.20;;;;;;5129933;27;45725;-69
2023/08/02 01:59:38;;;;;;;0.80;0.80;;;23.30;50.30;;;;;;5129455;27;45225;-68
2023/08/02 02:02:05;;;;;;;0.93;0.90;;;23.30;50.90;;;;;;5129411;27;45248;-68
2023/08/02 02:04:32;;;;;;;1.15;1.05;;;23.30;50.30;;;;;;5126401;27;45252;-68
2023/08/02 02:06:58;;;;;;;1.40;0.90;;;23.30;50.20;;;;;;5129185;27;45329;-68
2023/08/02 02:09:25;;;;;;;1.00;0.73;;;23.30;50.30;;;;;;5129175;27;45396;-69
2023/08/02 02:11:53;;;;;;;1.02;1.02;;;23.30;50.30;;;;;;5129541;27;45440;-68
2023/08/02 02:14:20;;;;;;;0.60;0.60;;;23.30;50.20;;;;;;5129518;27;45241;-68
2023/08/02 02:16:47;;;;;;;0.95;0.95;;;23.30;50.30;;;;;;5126485;27;46142;-68
2023/08/02 02:19:14;;;;;;;0.70;0.70;;;23.30;50.30;;;;;;5129248;27;45315;-68
2023/08/02 02:21:41;;;;;;;0.95;0.77;;;23.30;50.30;;;;;;5129260;27;45416;-69
2023/08/02 02:24:07;;;;;;;0.85;0.77;;;23.30;50.30;;;;;;5129305;27;45407;-68
2023/08/02 02:26:35;;;;;;;1.58;0.70;;;23.30;50.30;;;;;;5128977;27;46325;-69
2023/08/02 02:29:03;;;;;;;1.20;0.90;;;23.30;50.30;;;;;;5128928;27;45279;-68
2023/08/02 02:31:30;;;;;;;0.80;0.80;;;23.20;50.20;;;;;;5129038;27;45374;-68
2023/08/02 02:33:57;;;;;;;0.88;0.80;;;23.20;50.20;;;;;;5129172;27;45441;-69
2023/08/02 02:36:24;;;;;;;0.85;0.77;;;23.20;50.30;;;;;;5128769;27;46348;-69
2023/08/02 02:38:50;;;;;;;0.60;0.60;;;23.20;50.30;;;;;;5128966;27;45244;-69
2023/08/02 02:41:17;;;;;;;1.13;0.75;;;23.20;50.20;;;;;;5128863;27;45325;-69
2023/08/02 02:43:44;;;;;;;0.60;0.60;;;23.20;50.30;;;;;;5125867;27;44846;-69
2023/08/02 02:46:12;;;;;;;0.88;0.80;;;23.20;50.30;;;;;;5106466;27;46750;-68
2023/08/02 02:48:39;;;;;;;0.80;0.77;;;23.20;50.30;;;;;;5107322;27;45397;-68
2023/08/02 02:51:06;;;;;;;1.05;1.00;;;23.20;50.30;;;;;;5108438;27;45403;-69
2023/08/02 02:53:33;;;;;;;0.80;0.80;;;23.20;50.30;;;;;;5106201;27;45343;-68
2023/08/02 02:55:59;;;;;;;1.10;0.90;;;23.20;50.40;;;;;;5107877;27;45265;-69
2023/08/02 02:58:26;;;;;;;0.98;0.80;;;23.20;50.40;;;;;;5107898;27;45383;-70
2023/08/02 03:00:53;;;;;;;0.80;0.65;;;23.20;50.40;;;;;;5108055;27;45312;-69
2023/08/02 03:03:22;;;;;;;0.70;0.70;;;23.20;50.50;;;;;;5108578;27;45642;-69
2023/08/02 03:05:48;;;;;;;2.63;1.00;;;23.20;50.50;;;;;;5108359;27;46137;-69
2023/08/02 03:08:15;;;;;;;1.48;0.90;;;23.20;50.50;;;;;;5108122;27;45185;-69
2023/08/02 03:10:42;;;;;;;1.27;0.80;;;23.20;50.60;;;;;;5107904;27;45382;-69
2023/08/02 03:13:10;;;;;;;3.20;0.95;;;23.20;50.50;;;;;;5108176;27;45506;-69
2023/08/02 03:15:37;;;;;;;1.05;1.00;;;23.20;50.50;;;;;;5107911;27;46396;-69
2023/08/02 03:18:04;;;;;;;0.73;0.73;;;23.20;50.60;;;;;;5108025;27;45362;-69
2023/08/02 03:20:32;;;;;;;2.20;0.90;;;23.20;50.70;;;;;;5108224;27;45343;-68
2023/08/02 03:22:59;;;;;;;1.00;0.82;;;23.10;50.60;;;;;;5108292;27;45435;-70
2023/08/02 03:25:26;;;;;;;0.60;0.60;;;23.10;50.60;;;;;;5107812;27;45457;-69
2023/08/02 03:27:53;;;;;;;1.08;1.00;;;23.10;50.70;;;;;;5107878;27;45272;-69
2023/08/02 03:30:20;;;;;;;0.65;0.65;;;23.10;50.70;;;;;;5107000;27;45245;-69
2023/08/02 03:32:46;;;;;;;1.20;0.88;;;23.20;50.70;;;;;;5108031;27;45379;-69
2023/08/02 03:35:13;;;;;;;1.40;0.85;;;23.10;50.70;;;;;;5107349;27;46286;-70
2023/08/02 03:37:41;;;;;;;1.48;0.98;;;23.10;50.70;;;;;;5107552;27;45381;-69
2023/08/02 03:40:09;;;;;;;0.90;0.90;;;23.10;50.80;;;;;;5107825;27;45318;-69
2023/08/02 03:42:36;;;;;;;0.80;0.80;;;23.10;50.90;;;;;;5107994;27;45350;-69
2023/08/02 03:45:03;;;;;;;1.08;1.00;;;23.10;51.40;;;;;;5122097;27;45401;-69
2023/08/02 03:47:30;;;;;;;0.90;0.90;;;23.10;50.80;;;;;;5128024;27;45377;-69
2023/08/02 03:49:57;;;;;;;1.13;0.80;;;23.10;50.80;;;;;;5127867;27;45291;-69
2023/08/02 03:52:24;;;;;;;1.10;1.00;;;23.00;51.40;;;;;;5128378;27;45450;-69
2023/08/02 03:54:52;;;;;;;0.90;0.90;;;23.00;50.80;;;;;;5127390;27;46313;-69
2023/08/02 03:57:19;;;;;;;1.00;0.90;;;23.00;50.90;;;;;;5127938;27;45401;-69
2023/08/02 03:59:46;;;;;;;1.75;0.88;;;23.00;50.90;;;;;;5128354;27;45436;-69
2023/08/02 04:02:13;;;;;;;0.90;0.90;;;23.00;50.90;;;;;;5128221;27;45175;-70
2023/08/02 04:04:40;;;;;;;1.00;0.80;;;23.00;50.90;;;;;;5127292;27;46735;-68
2023/08/02 04:07:07;;;;;;;0.80;0.80;;;23.00;50.90;;;;;;5124972;27;45372;-69
2023/08/02 04:09:33;;;;;;;0.80;0.80;;;23.00;50.90;;;;;;5127419;27;45339;-68
2023/08/02 04:12:01;;;;;;;1.00;0.90;;;23.00;51.00;;;;;;5127606;27;45396;-69
2023/08/02 04:14:28;;;;;;;0.77;0.77;;;23.00;51.00;;;;;;5126532;27;46310;-67
2023/08/02 04:16:55;;;;;;;1.77;1.08;;;23.00;51.00;;;;;;5126841;27;45267;-68
2023/08/02 04:19:22;;;;;;;0.70;0.70;;;23.00;51.00;;;;;;5127396;27;45413;-69
2023/08/02 04:21:49;;;;;;;1.00;0.90;;;23.00;51.10;;;;;;5127373;27;45415;-68
2023/08/02 04:24:15;;;;;;;1.30;0.85;;;23.00;51.00;;;;;;5127020;27;45484;-69
2023/08/02 04:26:42;;;;;;;0.80;0.80;;;23.00;51.10;;;;;;5127329;27;45356;-69
2023/08/02 04:29:10;;;;;;;1.92;0.70;;;23.00;51.20;;;;;;5127397;27;45344;-68
2023/08/02 04:31:37;;;;;;;1.45;0.90;;;23.00;51.70;;;;;;5127511;27;45415;-69
2023/08/02 04:34:05;;;;;;;0.88;0.80;;;23.00;51.10;;;;;;5127225;27;45579;-68
2023/08/02 04:36:32;;;;;;;0.85;0.85;;;23.00;51.10;;;;;;5127106;27;45357;-68
2023/08/02 04:39:02;;;;;;;0.70;0.70;;;23.00;51.10;;;;;;5127102;27;45284;-68
2023/08/02 04:41:28;;;;;;;1.63;0.82;;;23.00;51.10;;;;;;5127191;27;45267;-69
2023/08/02 04:43:55;;;;;;;0.95;0.80;;;22.90;51.10;;;;;;5121859;27;46317;-68
2023/08/02 04:46:26;;;;;;;0.70;0.70;;;22.90;51.10;;;;;;5106436;27;45259;-68
2023/08/02 04:48:53;;;;;;;0.63;0.63;;;22.90;51.10;;;;;;5106548;27;45357;-69
2023/08/02 04:51:19;;;;;;;1.17;0.90;;;22.90;51.10;;;;;;5106393;27;45491;-71
2023/08/02 04:53:47;;;;;;;0.60;0.55;;;22.90;51.10;;;;;;5106157;27;46924;-68
2023/08/02 04:56:14;;;;;;;0.80;0.80;;;22.90;51.10;;;;;;5106081;27;45336;-68
2023/08/02 04:58:41;;;;;;;0.90;0.90;;;22.90;51.10;;;;;;5106182;27;45304;-71
2023/08/02 05:01:08;;;;;;;0.90;0.88;;;22.90;51.10;;;;;;5105817;27;45397;-69
2023/08/02 05:03:36;;;;;;;0.73;0.73;;;22.90;51.10;;;;;;5105767;27;46670;-69
2023/08/02 05:06:04;;;;;;;1.48;0.90;;;22.90;51.10;;;;;;5105965;27;45326;-69
2023/08/02 05:08:33;;;;;;;2.70;0.98;;;22.90;51.20;;;;;;5106191;27;45221;-69
2023/08/02 05:11:00;;;;;;;0.88;0.88;;;22.90;51.20;;;;;;5109798;27;45370;-70
2023/08/02 05:13:27;;;;;;;1.27;0.90;;;22.90;51.20;;;;;;5109208;27;45483;-70
2023/08/02 05:15:55;;;;;;;0.98;0.98;;;22.90;51.30;;;;;;5109357;27;45388;-69
2023/08/02 05:18:21;;;;;;;1.40;0.80;;;22.90;51.20;;;;;;5109395;27;45483;-69
2023/08/02 05:20:50;;;;;;;0.80;0.70;;;22.90;51.20;;;;;;5109925;27;45390;-69
2023/08/02 05:23:16;;;;;;;1.52;0.90;;;22.90;51.20;;;;;;5109148;27;45272;-69
2023/08/02 05:25:43;;;;;;;1.35;0.85;;;22.90;51.20;;;;;;5109278;27;45279;-70
2023/08/02 05:28:10;;;;;;;0.73;0.73;;;22.80;51.20;;;;;;5109320;27;45297;-69
2023/08/02 05:30:37;;;;;;;1.33;0.90;;;22.90;51.30;;;;;;5109686;27;45351;-69
2023/08/02 05:33:06;;;;;;;0.70;0.70;;;22.90;51.30;;;;;;5109075;27;45519;-70
2023/08/02 05:35:33;;;;;;;1.02;0.93;;;22.90;51.30;;;;;;5109008;27;45357;-69
2023/08/02 05:38:01;;;;;;;0.80;0.80;;;22.80;51.20;;;;;;5108969;27;45350;-70
2023/08/02 05:40:28;;;;;;;1.30;1.00;;;22.80;51.80;;;;;;5109246;27;45303;-69
2023/08/02 05:42:55;;;;;;;1.40;0.90;;;22.90;51.30;;;;;;5108739;27;45512;-69
2023/08/02 05:45:22;;;;;;;1.02;0.90;;;22.80;51.20;;;;;;5125606;27;45326;-69
2023/08/02 05:47:50;;;;;;;0.70;0.70;;;22.90;51.30;;;;;;5128980;27;45259;-69
2023/08/02 05:50:17;;;;;;;1.10;1.00;;;22.80;51.20;;;;;;5129915;27;45317;-69
2023/08/02 05:52:44;;;;;;;0.80;0.70;;;22.90;51.30;;;;;;5129163;27;46573;-69
2023/08/02 05:55:12;;;;;;;1.00;0.80;;;22.80;51.80;;;;;;5129396;27;45373;-69
2023/08/02 05:57:39;;;;;;;1.00;1.00;;;22.80;51.30;;;;;;5129440;27;45339;-69
2023/08/02 06:00:08;;;;;;;1.35;0.77;;;22.80;51.40;;;;;;5129869;27;45379;-69
2023/08/02 06:02:40;;;;;;;1.02;0.93;;;22.80;51.30;;;;;;5129652;27;47453;-69
2023/08/02 06:05:08;;;;;;;0.88;0.85;;;22.80;51.30;;;;;;5129275;27;45344;-69
2023/08/02 06:07:34;;;;;;;1.00;1.00;;;22.80;51.30;;;;;;5129390;27;45473;-70
2023/08/02 06:10:01;;;;;;;0.90;0.90;;;22.80;51.30;;;;;;5129690;27;45312;-69
2023/08/02 06:12:29;;;;;;;0.95;0.95;;;22.80;51.30;;;;;;5129040;27;45246;-70
2023/08/02 06:14:56;;;;;;;1.08;0.88;;;22.80;51.40;;;;;;5129811;27;45372;-69
2023/08/02 06:17:25;;;;;;;1.60;0.80;;;22.80;51.40;;;;;;5129432;27;45376;-69
2023/08/02 06:19:52;;;;;;;1.27;0.90;;;22.80;51.30;;;;;;5129370;27;45383;-69
2023/08/02 06:22:18;;;;;;;0.80;0.80;;;22.80;51.40;;;;;;5128976;27;45315;-69
2023/08/02 06:24:45;;;;;;;0.80;0.80;;;22.80;51.40;;;;;;5129159;27;45246;-69
2023/08/02 06:27:12;;;;;;;0.90;0.90;;;22.80;51.40;;;;;;5129270;27;45358;-69
2023/08/02 06:29:40;;;;;;;1.40;0.93;;;22.80;52.00;;;;;;5129241;27;45270;-69
2023/08/02 06:32:07;;;;;;;0.80;0.80;;;22.70;51.50;;;;;;5128692;27;45309;-69
2023/08/02 06:34:35;;;;;;;0.80;0.80;;;22.70;51.40;;;;;;5128113;27;45349;-69
2023/08/02 06:37:01;;;;;;;1.13;0.98;;;22.70;51.50;;;;;;5129082;27;45261;-70
2023/08/02 06:39:28;;;;;;;0.90;0.90;;;22.80;51.50;;;;;;5129386;27;45505;-69
2023/08/02 06:41:55;;;;;;;1.05;0.90;;;22.70;51.50;;;;;;5128943;27;45308;-69
2023/08/02 06:44:22;;;;;;;0.90;0.90;;;22.70;51.60;;;;;;5119809;27;45318;-69
2023/08/02 06:46:50;;;;;;;1.35;0.90;;;22.70;51.60;;;;;;5108169;27;45321;-69
2023/08/02 06:49:17;;;;;;;1.02;0.93;;;22.70;51.60;;;;;;5108107;27;45338;-70
2023/08/02 06:51:44;;;;;;;1.52;0.90;;;22.70;51.50;;;;;;5107820;27;46017;-70
2023/08/02 06:54:12;;;;;;;0.90;0.90;;;22.70;51.60;;;;;;5107423;27;45458;-70
2023/08/02 06:56:38;;;;;;;1.08;0.98;;;22.70;51.60;;;;;;5108010;27;45314;-69
2023/08/02 06:59:05;;;;;;;0.77;0.77;;;22.70;51.50;;;;;;5108160;27;45241;-69
2023/08/02 07:01:32;;;;;;;1.52;1.23;;;22.70;51.50;;;;;;5107461;27;45385;-70
2023/08/02 07:04:00;;;;;;;0.80;0.80;;;22.70;51.50;;;;;;5107707;27;45303;-69
2023/08/02 07:06:27;;;;;;;2.03;1.00;;;22.70;51.50;;;;;;5107997;27;45328;-69
2023/08/02 07:08:55;;;;;;;0.88;0.88;;;22.70;51.50;;;;;;5107992;27;45290;-70
2023/08/02 07:11:22;;;;;;;1.27;0.90;;;22.70;51.40;;;;;;5107399;27;46535;-69
2023/08/02 07:13:49;;;;;;;2.28;0.80;;;22.70;51.50;;;;;;5107219;27;45366;-69
2023/08/02 07:16:15;;;;;;;1.42;1.10;;;22.70;52.00;;;;;;5107585;27;45280;-70
2023/08/02 07:18:42;;;;;;;1.10;1.00;;;22.80;51.50;;;;;;5107339;27;45173;-69
2023/08/02 07:21:11;;;;;;;1.63;1.10;;;22.80;51.40;;;;;;5107447;27;45282;-69
2023/08/02 07:23:37;;;;;;;0.90;0.90;;;22.80;51.40;;;;;;5107409;27;45331;-69
2023/08/02 07:26:05;;;;;;;1.05;1.05;;;22.80;51.30;;;;;;5107582;27;45404;-70
2023/08/02 07:28:32;;;;;;;1.00;1.00;;;22.90;51.30;;;;;;5107666;27;45513;-69
2023/08/02 07:31:08;;;;;;;1.20;1.10;;;22.90;51.30;;;;;;5107055;27;46374;-69
2023/08/02 07:33:35;;;;;;;1.20;1.00;;;22.90;51.30;;;;;;5104280;27;45283;-69
2023/08/02 07:36:02;;;;;;;2.00;1.40;;;22.90;51.50;;;;;;5107502;27;45251;-70
2023/08/02 07:38:30;;;;;;;2.83;1.02;;;22.90;51.20;;;;;;5107599;27;45543;-69
2023/08/02 07:40:57;;;;;;;1.85;1.00;;;22.90;51.10;;;;;;5107160;27;45373;-69
2023/08/02 07:43:24;;;;;;;2.63;1.25;;;22.90;51.10;;;;;;5107504;27;45352;-69
2023/08/02 07:45:51;;;;;;;1.92;1.02;;;22.90;51.00;;;;;;5128141;27;45212;-69
2023/08/02 07:48:17;;;;;;;1.52;1.23;;;23.00;51.10;;;;;;5127249;27;45436;-69
2023/08/02 07:50:44;;;;;;;1.20;1.10;;;22.90;51.10;;;;;;5127731;27;45379;-69
2023/08/02 07:53:11;;;;;;;3.25;1.27;;;22.90;51.00;;;;;;5127452;27;45309;-69
2023/08/02 07:55:40;;;;;;;2.33;1.40;;;23.00;50.90;;;;;;5127851;27;45282;-68
2023/08/02 07:58:07;;;;;;;1.52;1.20;;;23.00;50.90;;;;;;5128337;27;45547;-69
2023/08/02 08:00:34;;;;;;;1.67;1.30;;;23.00;51.00;;;;;;5127455;27;45361;-69
2023/08/02 08:03:03;;;;;;;3.63;1.23;;;23.00;50.90;;;;;;5127595;27;45331;-69
2023/08/02 08:05:30;;;;;;;2.35;1.30;;;23.00;50.90;;;;;;5127844;27;45421;-69
2023/08/02 08:07:57;;;;;;;2.22;1.60;;;23.00;50.80;;;;;;5127937;27;45302;-69
2023/08/02 08:10:23;;;;;;;1.30;1.20;;;23.00;50.90;;;;;;5127314;27;45437;-68
2023/08/02 08:12:51;;;;;;;4.43;1.52;;;23.00;51.00;;;;;;5127396;27;45357;-69
2023/08/02 08:15:18;;;;;;;2.60;1.92;;;23.00;51.00;;;;;;5127861;27;45324;-69
2023/08/02 08:17:45;;;;;;;3.30;1.35;;;23.00;50.90;;;;;;5127703;27;45536;-69
2023/08/02 08:20:13;;;;;;;3.15;1.48;;;23.00;50.90;;;;;;5127275;27;46388;-69
2023/08/02 08:22:40;;;;;;;2.00;1.80;;;23.00;50.90;;;;;;5127518;27;45380;-69
2023/08/02 08:25:07;;;;;;;2.25;1.50;;;23.00;50.90;;;;;;5124618;27;45413;-69
2023/08/02 08:27:36;;;;;;;2.40;1.40;;;23.10;50.90;;;;;;5127581;27;45333;-69
2023/08/02 08:30:04;;;;;;;2.22;1.50;;;23.10;51.00;;;;;;5126922;27;46858;-69
2023/08/02 08:32:31;;;;;;;2.45;1.40;;;23.10;51.00;;;;;;5127253;27;45447;-69
2023/08/02 08:34:58;;;;;;;3.28;1.40;;;23.10;50.90;;;;;;5126924;27;45310;-69
2023/08/02 08:37:25;;;;;;;2.20;1.52;;;23.10;50.90;;;;;;5127755;27;45377;-69
2023/08/02 08:39:52;;;;;;;2.20;1.60;;;23.10;51.00;;;;;;5126892;27;46659;-69
2023/08/02 08:42:19;;;;;;;1.55;1.17;;;23.10;50.90;;;;;;5127206;27;45436;-69
2023/08/02 08:44:46;;;;;;;3.03;1.42;;;23.10;50.90;;;;;;5117032;27;45313;-69
2023/08/02 08:47:14;;;;;;;2.13;1.20;;;23.10;51.10;;;;;;5108055;27;45342;-69
2023/08/02 08:49:41;;;;;;;1.75;1.50;;;23.20;50.90;;;;;;5109783;27;46278;-69
2023/08/02 08:52:10;;;;;;;1.75;1.42;;;23.20;50.80;;;;;;5110224;27;45463;-69
2023/08/02 08:54:37;;;;;;;2.03;1.60;;;23.20;50.90;;;;;;5109696;27;45338;-69
2023/08/02 08:57:05;;;;;;;2.05;1.52;;;23.20;50.70;;;;;;5110365;27;45399;-69
2023/08/02 08:59:31;;;;;;;1.85;1.50;;;23.20;50.70;;;;;;5109657;27;46385;-68
2023/08/02 09:01:59;;;;;;;1.70;1.60;;;23.30;50.50;;;;;;5110014;27;45434;-68
2023/08/02 09:04:27;;;;;;;1.85;1.63;;;23.20;50.60;;;;;;5109820;27;45446;-69
2023/08/02 09:06:54;;;;;;;2.42;1.65;;;23.30;50.90;;;;;;5112418;27;45478;-69
2023/08/02 09:09:21;;;;;;;2.38;2.08;;;23.30;50.70;;;;;;5110360;27;46351;-69
2023/08/02 09:11:47;;;;;;;1.95;1.50;;;23.30;50.60;;;;;;5109803;27;45350;-69
2023/08/02 09:14:15;;;;;;;2.40;1.58;;;23.30;51.00;;;;;;5109798;27;45248;-69
2023/08/02 09:16:56;;;;;;;2.30;1.83;;;23.30;50.70;;;;;;5110134;27;45409;-69
2023/08/02 09:19:23;;;;;;;2.38;1.70;;;23.30;50.70;;;;;;5109489;27;46762;-69
2023/08/02 09:22:08;;;;;;;2.38;1.67;;;23.30;50.60;;;;;;5108848;27;45351;-69
2023/08/02 09:24:36;;;;;;;4.88;1.90;;;23.30;50.60;;;;;;5109496;27;45367;-69
2023/08/02 09:27:03;;;;;;;1.55;1.45;;;23.40;50.70;;;;;;5109690;27;45447;-70
2023/08/02 09:29:43;;;;;;;3.38;1.85;;;23.40;50.80;;;;;;5108351;27;47288;-70
2023/08/02 09:32:10;;;;;;;1.85;1.70;;;23.50;50.70;;;;;;5108522;27;45424;-69
2023/08/02 09:34:43;;;;;;;2.08;1.70;;;23.50;51.00;;;;;;5115662;27;45375;-69
2023/08/02 09:37:12;;;;;;;2.50;1.73;;;23.50;50.80;;;;;;5130279;27;45374;-69
2023/08/02 09:39:39;;;;;;;4.75;2.00;;;23.60;51.00;;;;;;5129710;27;46472;-70
2023/08/02 09:42:10;;;;;;;2.83;1.58;;;23.60;51.00;;;;;;5129930;27;45329;-69
2023/08/02 09:44:36;;;;;;;3.30;2.08;;;23.60;50.70;;;;;;5118955;27;45378;-70
2023/08/02 09:47:10;;;;;;;1.75;1.55;;;23.70;50.80;;;;;;5109434;27;45364;-70
2023/08/02 09:49:37;;;;;;;5.45;1.88;;;23.70;50.70;;;;;;5108963;27;46499;-70
2023/08/02 09:52:04;;;;;;;2.78;1.77;;;23.70;50.80;;;;;;5109279;27;45348;-70
2023/08/02 09:54:32;;;;;;;2.88;2.08;;;23.80;51.60;;;;;;5108017;27;45335;-69
2023/08/02 09:56:59;;;;;;;2.42;1.63;;;23.80;50.80;;;;;;5109244;27;45363;-69
2023/08/02 09:59:26;;;;;;;1.90;1.50;;;23.80;50.70;;;;;;5108808;27;45481;-69
2023/08/02 10:01:52;;;;;;;2.80;2.08;;;23.80;50.80;;;;;;5108961;27;45311;-69
2023/08/02 10:04:19;;;;;;;2.72;1.75;;;23.90;50.90;;;;;;5109165;27;45214;-69
2023/08/02 10:06:49;;;;;;;2.13;1.88;;;23.90;51.00;;;;;;5109824;27;45426;-70
2023/08/02 10:09:19;;;;;;;3.03;1.73;;;24.00;51.00;;;;;;5108945;27;46398;-69
2023/08/02 10:11:57;;;;;;;3.88;2.10;;;24.00;51.10;;;;;;5108623;27;45330;-70
2023/08/02 10:14:24;;;;;;;3.13;1.80;;;24.00;51.00;;;;;;5108686;27;45469;-69
2023/08/02 10:16:52;;;;;;;1.90;1.80;;;24.10;51.00;;;;;;5108780;27;45349;-69
2023/08/02 10:19:19;;;;;;;4.05;1.90;;;24.10;51.70;;;;;;5108780;27;46824;-69
2023/08/02 10:21:46;;;;;;;2.70;1.80;;;24.10;51.20;;;;;;5108490;27;45326;-69
2023/08/02 10:24:13;;;;;;;4.88;2.00;;;24.20;51.30;;;;;;5108768;27;45343;-69
2023/08/02 10:26:40;;;;;;;6.32;2.08;;;24.20;51.10;;;;;;5110815;27;45308;-70
2023/08/02 10:29:08;;;;;;;4.30;2.00;;;24.30;51.20;;;;;;5108491;27;46414;-69
2023/08/02 10:31:35;;;;;;;3.80;2.60;;;24.30;51.10;;;;;;5108377;27;45284;-70
2023/08/02 10:34:02;;;;;;;3.35;2.00;;;24.30;51.10;;;;;;5108519;27;45279;-69
2023/08/02 10:36:29;;;;;;;3.10;1.70;;;24.40;51.10;;;;;;5108536;27;45423;-69
2023/08/02 10:38:56;;;;;;;1.92;1.65;;;24.40;51.10;;;;;;5108767;27;46292;-70
2023/08/02 10:41:25;;;;;;;2.83;1.92;;;24.40;51.10;;;;;;5108402;27;45286;-69
2023/08/02 10:44:13;;;;;;;4.38;2.17;;;24.50;51.20;;;;;;5113030;27;45348;-70
2023/08/02 10:46:40;;;;;;;4.07;2.00;;;24.50;51.30;;;;;;5129491;27;45456;-70
2023/08/02 10:49:37;;;;;;;2.10;1.90;;;24.50;51.30;;;;;;5129024;27;45512;-69
2023/08/02 10:52:26;;;;;;;3.63;2.15;;;24.60;51.30;;;;;;5128648;27;45264;-70
2023/08/02 10:55:13;;;;;;;2.53;1.90;;;24.70;51.20;;;;;;5128572;27;45385;-70
2023/08/02 10:57:40;;;;;;;2.17;1.90;;;24.70;51.20;;;;;;5128978;27;45428;-70
2023/08/02 11:00:19;;;;;;;3.85;2.20;;;24.80;51.10;;;;;;5125866;27;45571;-70
2023/08/02 11:02:48;;;;;;;4.40;2.13;;;24.90;51.70;;;;;;5117254;27;45463;-70
2023/08/02 11:05:18;;;;;;;3.97;2.17;;;25.00;50.90;;;;;;5113984;27;45381;-69
2023/08/02 11:07:58;;;;;;;2.50;1.90;;;25.00;50.90;;;;;;5120951;27;45501;-68
2023/08/02 11:10:24;;;;;;;2.05;1.85;;;25.00;51.00;;;;;;5128228;27;46349;-69
2023/08/02 11:12:52;;;;;;;5.20;2.00;;;25.00;51.10;;;;;;5128477;27;45323;-69
2023/08/02 11:15:20;;;;;;;3.30;1.83;;;25.00;51.30;;;;;;5128039;27;45279;-69
2023/08/02 11:17:47;;;;;;;2.67;1.98;;;25.00;51.30;;;;;;5128820;27;45512;-69
2023/08/02 11:20:15;;;;;;;2.63;2.00;;;25.10;51.20;;;;;;5128383;27;46635;-69
2023/08/02 11:22:41;;;;;;;2.33;1.90;;;25.10;51.20;;;;;;5128291;27;45314;-70
2023/08/02 11:25:09;;;;;;;2.85;2.17;;;25.10;51.30;;;;;;5128392;27;45473;-69
2023/08/02 11:27:36;;;;;;;2.13;1.80;;;25.10;51.30;;;;;;5128540;27;45321;-69
2023/08/02 11:30:04;;;;;;;3.97;2.00;;;25.10;51.30;;;;;;5127934;27;45268;-70
2023/08/02 11:32:33;;;;;;;2.78;2.20;;;25.10;51.50;;;;;;5130977;27;45274;-69
2023/08/02 11:35:00;;;;;;;2.30;1.58;;;25.10;51.50;;;;;;5122841;27;45445;-69
2023/08/02 11:37:27;;;;;;;3.05;1.90;;;25.10;51.50;;;;;;5117574;27;45459;-71
2023/08/02 11:39:53;;;;;;;2.78;2.33;;;25.10;51.40;;;;;;5129147;27;45478;-70
2023/08/02 11:42:20;;;;;;;2.38;2.08;;;25.10;51.50;;;;;;5129644;27;45417;-70
2023/08/02 11:44:47;;;;;;;2.42;1.85;;;25.10;51.60;;;;;;5117576;27;45469;-70
2023/08/02 11:47:14;;;;;;;3.33;1.88;;;25.10;51.60;;;;;;5107341;27;45296;-69
2023/08/02 11:49:56;;;;;;;2.70;2.00;;;25.20;51.60;;;;;;5106609;27;45473;-70
2023/08/02 11:52:26;;;;;;;3.70;2.08;;;25.20;51.50;;;;;;5106392;27;45513;-69
2023/08/02 11:54:53;;;;;;;1.98;1.75;;;25.30;51.40;;;;;;5106303;27;45357;-69
2023/08/02 11:57:20;;;;;;;2.00;1.80;;;25.30;51.40;;;;;;5111142;27;45368;-71
2023/08/02 11:59:47;;;;;;;3.80;2.10;;;25.30;51.30;;;;;;5108168;27;45406;-70
2023/08/02 12:02:24;;;;;;;2.60;1.60;;;25.30;51.20;;;;;;5107146;27;45304;-70
2023/08/02 12:04:51;;;;;;;2.92;1.80;;;25.40;51.40;;;;;;5120213;27;45256;-70
2023/08/02 12:07:26;;;;;;;2.75;2.05;;;25.40;51.40;;;;;;5128199;27;45419;-69
2023/08/02 12:09:53;;;;;;;3.58;2.00;;;25.40;51.30;;;;;;5129106;27;45370;-70
2023/08/02 12:12:20;;;;;;;4.90;2.08;;;25.50;51.30;;;;;;5129204;27;45359;-70
2023/08/02 12:14:47;;;;;;;2.85;1.92;;;25.60;51.20;;;;;;5130408;27;45347;-69
2023/08/02 12:17:20;;;;;;;1.90;1.67;;;25.60;51.20;;;;;;5129899;27;45527;-69
2023/08/02 12:19:47;;;;;;;3.13;1.98;;;25.60;51.30;;;;;;5132206;27;45356;-70
2023/08/02 12:22:14;;;;;;;1.90;1.70;;;25.60;51.40;;;;;;5131472;27;44894;-69
2023/08/02 12:24:43;;;;;;;2.80;1.95;;;25.70;51.50;;;;;;5131986;27;45290;-68
2023/08/02 12:27:14;;;;;;;3.15;1.73;;;25.70;51.50;;;;;;5131840;27;45352;-69
2023/08/02 12:29:41;;;;;;;2.92;1.70;;;25.80;51.50;;;;;;5131268;27;46630;-69
2023/08/02 12:32:08;;;;;;;2.33;2.03;;;25.80;51.50;;;;;;5130458;27;45475;-70
2023/08/02 12:34:37;;;;;;;2.08;1.85;;;25.80;51.50;;;;;;5113637;27;45319;-69
2023/08/02 12:37:05;;;;;;;2.97;2.08;;;25.80;51.60;;;;;;5131475;27;45362;-69
2023/08/02 12:39:31;;;;;;;3.35;1.90;;;25.80;51.60;;;;;;5133587;27;46380;-69
2023/08/02 12:42:00;;;;;;;1.60;1.50;;;25.80;51.70;;;;;;5132386;27;45271;-70
2023/08/02 12:44:26;;;;;;;3.10;1.80;;;25.80;51.70;;;;;;5130833;27;45358;-69
2023/08/02 12:46:53;;;;;;;2.00;1.63;;;25.80;51.70;;;;;;5130924;27;45376;-70
2023/08/02 12:49:20;;;;;;;3.22;1.95;;;25.80;51.90;;;;;;5130763;27;45597;-70
2023/08/02 12:51:47;;;;;;;2.47;1.73;;;25.80;51.90;;;;;;5126482;27;45383;-69